createdAt,value
2023-08-28T00:00:32.044Z,84.05
2023-08-28T00:03:06.317Z,84.58
2023-08-28T00:05:19.359Z,84.69
2023-08-28T00:07:32.340Z,84.47
2023-08-28T00:09:45.618Z,84.25
2023-08-28T00:12:00.993Z,84.18
2023-08-28T00:14:14.377Z,84.19
2023-08-28T00:16:27.410Z,84.24
2023-08-28T00:18:40.504Z,84.27
2023-08-28T00:20:53.552Z,84.48
2023-08-28T00:23:07.372Z,84.48
2023-08-28T00:25:20.780Z,84.76
2023-08-28T00:27:33.769Z,84.77
2023-08-28T00:29:48.454Z,85.12
2023-08-28T00:32:01.312Z,85.01
2023-08-28T00:34:14.113Z,85.17
2023-08-28T00:36:27.180Z,84.99
2023-08-28T00:38:41.304Z,84.94
2023-08-28T00:40:55.046Z,84.98
2023-08-28T00:43:08.069Z,85.14
2023-08-28T00:45:21.488Z,84.87
2023-08-28T00:47:34.619Z,84.84
2023-08-28T00:49:48.522Z,84.57
2023-08-28T00:52:01.353Z,84.48
2023-08-28T00:54:14.785Z,84.48
2023-08-28T00:56:28.385Z,84.87
2023-08-28T00:58:42.251Z,85.14
2023-08-28T01:00:55.454Z,84.94
2023-08-28T01:03:09.032Z,84.81
2023-08-28T01:05:22.701Z,84.32
2023-08-28T01:07:43.601Z,84.37
2023-08-28T01:10:14.432Z,84.20
2023-08-28T01:12:35.330Z,84.35
2023-08-28T01:15:01.071Z,84.36
2023-08-28T01:17:16.813Z,84.15
2023-08-28T01:19:36.907Z,84.09
2023-08-28T01:21:54.552Z,84.06
2023-08-28T01:24:10.782Z,84.30
2023-08-28T01:26:24.382Z,84.24
2023-08-28T01:28:37.561Z,84.48
2023-08-28T01:30:55.884Z,84.52
2023-08-28T01:33:09.266Z,84.45
2023-08-28T01:35:26.485Z,84.48
2023-08-28T01:37:48.775Z,84.70
2023-08-28T01:40:08.061Z,84.66
2023-08-28T01:42:22.607Z,84.40
2023-08-28T01:44:39.840Z,84.26
2023-08-28T01:46:53.769Z,84.35
2023-08-28T01:49:07.579Z,84.32
2023-08-28T01:51:20.619Z,84.47
2023-08-28T01:53:34.078Z,84.53
2023-08-28T01:56:12.299Z,84.64
2023-08-28T01:58:26.150Z,84.36
2023-08-28T02:00:38.477Z,84.57
2023-08-28T02:02:48.810Z,84.73
2023-08-28T02:05:01.919Z,84.77
2023-08-28T02:07:14.840Z,84.78
2023-08-28T02:09:27.978Z,85.17
2023-08-28T02:11:41.070Z,85.31
2023-08-28T02:13:53.942Z,85.48
2023-08-28T02:16:07.264Z,85.44
2023-08-28T02:18:20.693Z,85.70
2023-08-28T02:20:34.533Z,85.67
2023-08-28T02:22:47.276Z,85.50
2023-08-28T02:25:00.800Z,85.35
2023-08-28T02:27:14.039Z,85.13
2023-08-28T02:29:27.251Z,85.29
2023-08-28T02:31:40.251Z,85.43
2023-08-28T02:33:53.193Z,85.52
2023-08-28T02:36:07.356Z,85.84
2023-08-28T02:38:21.092Z,86.03
2023-08-28T02:40:34.544Z,85.42
2023-08-28T02:42:48.784Z,85.35
2023-08-28T02:45:02.029Z,85.41
2023-08-28T02:47:14.826Z,85.68
2023-08-28T02:49:27.837Z,85.88
2023-08-28T02:51:40.892Z,85.87
2023-08-28T02:53:53.953Z,86.03
2023-08-28T02:56:28.742Z,86.20
2023-08-28T02:58:41.624Z,86.61
2023-08-28T03:00:55.941Z,86.90
2023-08-28T03:03:10.631Z,86.98
2023-08-28T03:05:24.087Z,87.18
2023-08-28T03:07:36.960Z,87.30
2023-08-28T03:09:49.769Z,87.49
2023-08-28T03:12:02.691Z,87.41
2023-08-28T03:14:19.083Z,87.54
2023-08-28T03:16:34.876Z,87.64
2023-08-28T03:18:48.010Z,87.85
2023-08-28T03:21:01.298Z,88.11
2023-08-28T03:23:14.339Z,88.37
2023-08-28T03:25:27.864Z,88.45
2023-08-28T03:27:41.517Z,88.78
2023-08-28T03:29:55.441Z,88.82
2023-08-28T03:32:09.336Z,88.88
2023-08-28T03:34:22.091Z,88.93
2023-08-28T03:36:34.887Z,88.94
2023-08-28T03:38:47.909Z,88.84
2023-08-28T03:41:02.049Z,88.56
2023-08-28T03:43:15.548Z,88.37
2023-08-28T03:45:29.151Z,88.69
2023-08-28T03:47:42.239Z,88.71
2023-08-28T03:49:55.249Z,88.77
2023-08-28T03:52:08.660Z,88.83
2023-08-28T03:54:21.681Z,89.07
2023-08-28T03:56:35.060Z,88.99
2023-08-28T03:58:48.441Z,88.97
2023-08-28T04:01:01.459Z,89.12
2023-08-28T04:03:14.759Z,89.24
2023-08-28T04:05:28.951Z,89.22
2023-08-28T04:07:42.847Z,89.23
2023-08-28T04:09:56.039Z,89.36
2023-08-28T04:12:09.443Z,89.16
2023-08-28T04:14:22.861Z,89.27
2023-08-28T04:16:36.910Z,89.33
2023-08-28T04:18:50.732Z,89.31
2023-08-28T04:21:07.003Z,89.05
2023-08-28T04:23:20.039Z,89.12
2023-08-28T04:25:33.141Z,88.97
2023-08-28T04:27:46.474Z,89.10
2023-08-28T04:29:59.878Z,88.75
2023-08-28T04:32:14.286Z,88.75
2023-08-28T04:34:27.566Z,88.94
2023-08-28T04:36:40.473Z,89.05
2023-08-28T04:38:53.723Z,88.89
2023-08-28T04:41:07.846Z,88.83
2023-08-28T04:43:20.664Z,88.98
2023-08-28T04:45:33.950Z,88.93
2023-08-28T04:47:49.627Z,88.78
2023-08-28T04:50:02.822Z,88.53
2023-08-28T04:52:15.794Z,88.50
2023-08-28T04:54:29.211Z,88.59
2023-08-28T04:56:41.871Z,88.85
2023-08-28T04:58:54.786Z,88.94
2023-08-28T05:01:07.960Z,89.08
2023-08-28T05:03:21.053Z,89.10
2023-08-28T05:05:34.426Z,89.08
2023-08-28T05:07:47.416Z,89.15
2023-08-28T05:10:00.290Z,89.22
2023-08-28T05:12:13.807Z,89.41
2023-08-28T05:14:26.649Z,89.43
2023-08-28T05:16:39.954Z,89.30
2023-08-28T05:18:52.860Z,89.07
2023-08-28T05:21:08.389Z,89.01
2023-08-28T05:23:27.501Z,89.19
2023-08-28T05:25:40.609Z,89.43
2023-08-28T05:27:53.420Z,89.33
2023-08-28T05:30:07.405Z,89.51
2023-08-28T05:32:20.793Z,89.21
2023-08-28T05:34:34.853Z,89.22
2023-08-28T05:36:48.463Z,89.20
2023-08-28T05:39:01.233Z,89.25
2023-08-28T05:41:14.128Z,89.17
2023-08-28T05:43:27.063Z,89.35
2023-08-28T05:45:41.214Z,89.48
2023-08-28T05:47:54.429Z,89.67
2023-08-28T05:50:08.652Z,89.69
2023-08-28T05:52:24.420Z,89.63
2023-08-28T05:54:37.741Z,89.52
2023-08-28T05:56:50.739Z,89.47
2023-08-28T05:59:04.265Z,89.40
2023-08-28T06:01:17.098Z,89.64
2023-08-28T06:03:31.436Z,89.76
2023-08-28T06:05:44.378Z,89.72
2023-08-28T06:07:58.186Z,89.87
2023-08-28T06:10:12.288Z,89.87
2023-08-28T06:12:25.128Z,89.66
2023-08-28T06:14:38.626Z,89.56
2023-08-28T06:16:51.988Z,89.85
2023-08-28T06:19:06.139Z,89.90
2023-08-28T06:21:19.135Z,89.89
2023-08-28T06:23:32.147Z,90.01
2023-08-28T06:25:45.082Z,89.84
2023-08-28T06:27:58.167Z,90.03
2023-08-28T06:30:12.532Z,89.56
2023-08-28T06:32:25.441Z,89.76
2023-08-28T06:34:38.811Z,89.72
2023-08-28T06:36:52.019Z,89.78
2023-08-28T06:39:06.405Z,89.65
2023-08-28T06:41:19.593Z,89.63
2023-08-28T06:43:32.706Z,89.52
2023-08-28T06:45:45.511Z,89.57
2023-08-28T06:47:59.824Z,89.52
2023-08-28T06:50:13.829Z,89.73
2023-08-28T06:52:27.110Z,89.46
2023-08-28T06:56:56.682Z,89.25
2023-08-28T06:59:10.271Z,89.10
2023-08-28T07:01:23.491Z,88.90
2023-08-28T07:03:36.479Z,88.81
2023-08-28T07:05:50.203Z,88.92
2023-08-28T07:08:03.215Z,89.05
2023-08-28T07:10:16.881Z,89.25
2023-08-28T07:12:29.680Z,89.43
2023-08-28T07:14:42.415Z,89.65
2023-08-28T07:16:55.632Z,89.67
2023-08-28T07:19:08.932Z,89.72
2023-08-28T07:21:21.699Z,89.82
2023-08-28T07:23:35.260Z,90.01
2023-08-28T07:25:48.559Z,90.24
2023-08-28T07:28:01.560Z,90.19
2023-08-28T07:30:17.866Z,90.06
2023-08-28T07:32:31.027Z,90.37
2023-08-28T07:34:44.208Z,90.09
2023-08-28T07:36:58.111Z,90.02
2023-08-28T07:39:10.751Z,89.68
2023-08-28T07:41:23.806Z,89.45
2023-08-28T07:43:36.585Z,89.54
2023-08-28T07:45:49.582Z,89.61
2023-08-28T07:48:03.166Z,89.71
2023-08-28T07:50:16.182Z,89.73
2023-08-28T07:52:28.718Z,89.77
2023-08-28T07:54:41.264Z,89.63
2023-08-28T07:56:53.710Z,89.80
2023-08-28T07:59:06.566Z,89.71
2023-08-28T08:01:18.950Z,89.49
2023-08-28T08:03:32.203Z,89.43
2023-08-28T08:05:44.888Z,89.63
2023-08-28T08:07:57.896Z,89.91
2023-08-28T08:10:13.934Z,89.82
2023-08-28T08:12:28.676Z,89.89
2023-08-28T08:14:41.140Z,90.06
2023-08-28T08:16:53.572Z,90.11
2023-08-28T08:19:06.588Z,90.15
2023-08-28T08:21:19.673Z,90.28
2023-08-28T08:23:32.729Z,90.20
2023-08-28T08:25:45.901Z,90.16
2023-08-28T08:28:01.329Z,90.27
2023-08-28T08:30:17.512Z,90.41
2023-08-28T08:32:30.341Z,90.54
2023-08-28T08:34:43.383Z,90.85
2023-08-28T08:36:55.953Z,91.05
2023-08-28T08:39:08.432Z,91.24
2023-08-28T08:41:21.138Z,91.15
2023-08-28T08:43:37.588Z,91.35
2023-08-28T08:45:52.633Z,91.45
2023-08-28T08:48:07.244Z,91.56
2023-08-28T08:50:22.964Z,91.71
2023-08-28T08:52:38.038Z,91.87
2023-08-28T08:54:51.604Z,91.95
2023-08-28T08:57:12.250Z,91.91
2023-08-28T08:59:25.255Z,91.98
2023-08-28T09:01:41.696Z,92.05
2023-08-28T09:03:55.172Z,92.21
2023-08-28T09:06:09.016Z,92.42
2023-08-28T09:08:24.349Z,92.30
2023-08-28T09:10:38.091Z,92.19
2023-08-28T09:12:51.946Z,92.04
2023-08-28T09:15:04.881Z,91.89
2023-08-28T09:17:17.555Z,91.79
2023-08-28T09:19:30.341Z,91.96
2023-08-28T09:21:47.407Z,92.16
2023-08-28T09:24:00.249Z,92.08
2023-08-28T09:26:15.577Z,91.91
2023-08-28T09:28:28.177Z,91.78
2023-08-28T09:30:41.820Z,91.38
2023-08-28T09:32:54.608Z,91.33
2023-08-28T09:35:10.821Z,91.61
2023-08-28T09:37:24.128Z,91.78
2023-08-28T09:39:36.661Z,91.84
2023-08-28T09:41:50.789Z,91.75
2023-08-28T09:44:06.846Z,91.99
2023-08-28T09:46:20.569Z,91.79
2023-08-28T09:48:39.281Z,91.65
2023-08-28T09:50:58.066Z,91.65
2023-08-28T09:53:18.406Z,91.64
2023-08-28T09:55:33.733Z,91.96
2023-08-28T09:57:49.215Z,92.26
2023-08-28T10:00:01.798Z,92.50
2023-08-28T10:02:22.712Z,92.53
2023-08-28T10:04:37.207Z,92.91
2023-08-28T10:06:53.207Z,92.68
2023-08-28T10:09:08.294Z,92.58
2023-08-28T10:11:20.972Z,92.49
2023-08-28T10:13:35.757Z,92.54
2023-08-28T10:16:04.956Z,92.88
2023-08-28T10:18:24.720Z,92.87
2023-08-28T10:20:38.781Z,92.55
2023-08-28T10:22:53.122Z,92.42
2023-08-28T10:25:06.100Z,92.36
2023-08-28T10:27:18.636Z,92.58
2023-08-28T10:29:32.240Z,92.39
2023-08-28T10:31:45.549Z,92.18
2023-08-28T10:33:59.146Z,92.10
2023-08-28T10:36:24.293Z,92.38
2023-08-28T10:38:57.307Z,92.47
2023-08-28T10:41:12.422Z,92.33
2023-08-28T10:43:27.013Z,92.19
2023-08-28T10:45:42.770Z,92.58
2023-08-28T10:47:57.219Z,92.89
2023-08-28T10:50:12.237Z,92.79
2023-08-28T10:52:25.889Z,92.95
2023-08-28T10:54:47.197Z,93.08
2023-08-28T10:57:05.627Z,93.21
2023-08-28T10:59:35.018Z,92.98
2023-08-28T11:01:58.519Z,93.06
2023-08-28T11:04:22.376Z,93.27
2023-08-28T11:06:46.159Z,93.07
2023-08-28T11:09:01.725Z,92.87
2023-08-28T11:11:23.520Z,93.14
2023-08-28T11:13:36.079Z,93.39
2023-08-28T11:15:51.008Z,93.38
2023-08-28T11:18:32.690Z,93.43
2023-08-28T11:20:46.150Z,93.33
2023-08-28T11:23:06.967Z,93.19
2023-08-28T11:25:38.991Z,93.34
2023-08-28T11:27:55.534Z,93.57
2023-08-28T11:30:10.440Z,93.62
2023-08-28T11:32:24.981Z,93.66
2023-08-28T11:34:38.604Z,93.87
2023-08-28T11:36:51.250Z,93.55
2023-08-28T11:39:06.095Z,93.35
2023-08-28T11:41:20.358Z,93.65
2023-08-28T11:43:33.758Z,93.10
2023-08-28T11:45:46.740Z,93.28
2023-08-28T11:48:02.649Z,93.46
2023-08-28T11:50:15.678Z,93.20
2023-08-28T11:52:29.191Z,93.08
2023-08-28T11:54:41.691Z,93.12
2023-08-28T11:56:56.070Z,93.15
2023-08-28T11:59:09.752Z,93.34
2023-08-28T12:01:25.157Z,93.70
2023-08-28T12:03:38.683Z,93.67
2023-08-28T12:05:51.242Z,93.21
2023-08-28T12:08:02.081Z,92.84
2023-08-28T12:10:15.711Z,92.82
2023-08-28T12:12:30.060Z,93.10
2023-08-28T12:14:46.366Z,93.50
2023-08-28T12:17:07.727Z,93.48
2023-08-28T12:19:24.976Z,93.89
2023-08-28T12:21:42.271Z,93.90
2023-08-28T12:24:00.351Z,93.78
2023-08-28T12:26:13.954Z,93.54
2023-08-28T12:28:29.068Z,93.71
2023-08-28T12:30:42.825Z,93.60
2023-08-28T12:32:59.445Z,93.76
2023-08-28T12:35:18.765Z,93.77
2023-08-28T12:37:45.198Z,93.80
2023-08-28T12:40:00.415Z,93.96
2023-08-28T12:42:16.934Z,93.87
2023-08-28T12:44:31.310Z,93.84
2023-08-28T12:46:44.037Z,93.76
2023-08-28T12:48:58.267Z,93.93
2023-08-28T12:51:10.917Z,94.07
2023-08-28T12:53:23.668Z,94.16
2023-08-28T12:55:37.036Z,94.40
2023-08-28T12:57:50.050Z,94.40
2023-08-28T13:00:08.754Z,94.59
2023-08-28T13:02:21.930Z,94.56
2023-08-28T13:04:35.143Z,94.24
2023-08-28T13:06:47.839Z,93.94
2023-08-28T13:09:00.619Z,93.73
2023-08-28T13:11:13.393Z,93.54
2023-08-28T13:13:27.639Z,93.81
2023-08-28T13:15:43.171Z,93.86
2023-08-28T13:17:58.671Z,93.87
2023-08-28T13:20:14.753Z,93.98
2023-08-28T13:22:27.569Z,94.23
2023-08-28T13:24:44.244Z,94.21
2023-08-28T13:26:58.291Z,94.33
2023-08-28T13:29:11.414Z,94.31
2023-08-28T13:31:24.603Z,94.41
2023-08-28T13:33:37.471Z,94.49
2023-08-28T13:35:50.816Z,94.71
2023-08-28T13:38:03.620Z,94.51
2023-08-28T13:40:17.252Z,94.25
2023-08-28T13:42:30.259Z,94.40
2023-08-28T13:44:43.490Z,94.73
2023-08-28T13:46:56.241Z,94.89
2023-08-28T13:49:09.167Z,94.90
2023-08-28T13:51:21.975Z,94.94
2023-08-28T13:53:35.215Z,94.96
2023-08-28T13:55:48.053Z,94.94
2023-08-28T13:58:01.143Z,95.04
2023-08-28T14:00:16.594Z,95.22
2023-08-28T14:02:29.588Z,95.37
2023-08-28T14:04:42.496Z,95.33
2023-08-28T14:06:55.218Z,95.21
2023-08-28T14:09:08.097Z,95.49
2023-08-28T14:11:20.896Z,95.63
2023-08-28T14:13:33.616Z,95.49
2023-08-28T14:15:47.349Z,95.26
2023-08-28T14:18:01.630Z,95.27
2023-08-28T14:20:16.757Z,95.50
2023-08-28T14:22:29.737Z,95.61
2023-08-28T14:24:43.181Z,95.77
2023-08-28T14:26:56.149Z,96.02
2023-08-28T14:29:09.858Z,95.95
2023-08-28T14:31:22.695Z,95.99
2023-08-28T14:33:35.586Z,96.27
2023-08-28T14:35:51.177Z,96.23
2023-08-28T14:38:04.946Z,96.09
2023-08-28T14:40:23.909Z,96.05
2023-08-28T14:42:41.993Z,96.24
2023-08-28T14:44:54.904Z,96.04
2023-08-28T14:47:08.129Z,96.09
2023-08-28T14:49:20.926Z,96.26
2023-08-28T14:51:33.870Z,96.46
2023-08-28T14:53:46.935Z,96.67
2023-08-28T14:55:59.959Z,96.47
2023-08-28T14:58:13.093Z,96.34
2023-08-28T15:00:27.149Z,96.48
2023-08-28T15:02:41.448Z,96.29
2023-08-28T15:04:54.546Z,96.41
2023-08-28T15:07:07.961Z,96.46
2023-08-28T15:09:21.100Z,96.32
2023-08-28T15:11:34.015Z,96.42
2023-08-28T15:13:47.728Z,96.51
2023-08-28T15:16:01.797Z,96.44
2023-08-28T15:18:14.744Z,96.09
2023-08-28T15:20:27.758Z,96.30
2023-08-28T15:22:40.909Z,96.22
2023-08-28T15:24:53.916Z,96.36
2023-08-28T15:27:07.083Z,96.50
2023-08-28T15:29:21.058Z,96.46
2023-08-28T15:31:35.662Z,96.49
2023-08-28T15:33:48.559Z,96.63
2023-08-28T15:36:01.468Z,96.60
2023-08-28T15:38:14.252Z,96.59
2023-08-28T15:40:27.015Z,95.88
2023-08-28T15:42:39.747Z,95.87
2023-08-28T15:44:52.800Z,95.89
2023-08-28T15:47:06.859Z,95.97
2023-08-28T15:49:20.939Z,95.40
2023-08-28T15:51:33.769Z,95.43
2023-08-28T15:53:46.730Z,95.99
2023-08-28T15:56:02.827Z,96.18
2023-08-28T15:58:15.681Z,96.65
2023-08-28T16:00:29.013Z,96.98
2023-08-28T16:02:42.320Z,97.04
2023-08-28T16:04:55.112Z,96.23
2023-08-28T16:07:08.287Z,95.78
2023-08-28T16:09:21.258Z,95.94
2023-08-28T16:11:35.316Z,96.24
2023-08-28T16:13:48.151Z,95.95
2023-08-28T16:16:01.034Z,95.55
2023-08-28T16:18:14.187Z,95.74
2023-08-28T16:20:30.669Z,96.28
2023-08-28T16:22:43.656Z,96.33
2023-08-28T16:24:59.164Z,96.21
2023-08-28T16:27:12.619Z,96.35
2023-08-28T16:29:25.747Z,96.27
2023-08-28T16:31:41.761Z,96.59
2023-08-28T16:33:55.302Z,96.82
2023-08-28T16:36:08.535Z,96.49
2023-08-28T16:38:21.615Z,95.56
2023-08-28T16:40:34.610Z,95.23
2023-08-28T16:42:47.855Z,94.83
2023-08-28T16:45:00.613Z,95.34
2023-08-28T16:47:13.607Z,95.68
2023-08-28T16:49:26.604Z,95.60
2023-08-28T16:51:41.313Z,95.41
2023-08-28T16:53:54.282Z,95.28
2023-08-28T16:56:07.355Z,94.75
2023-08-28T16:58:20.165Z,94.92
2023-08-28T17:00:36.461Z,95.49
2023-08-28T17:02:50.034Z,95.45
2023-08-28T17:05:03.833Z,95.42
2023-08-28T17:07:17.508Z,95.55
2023-08-28T18:04:32.837Z,95.04
2023-08-28T18:06:47.832Z,95.14
2023-08-28T18:09:00.731Z,95.37
2023-08-28T18:11:13.462Z,94.99
2023-08-28T18:13:26.369Z,94.60
2023-08-28T18:15:41.838Z,94.42
2023-08-28T18:17:54.873Z,94.44
2023-08-28T18:20:08.540Z,94.54
2023-08-28T18:22:21.308Z,94.45
2023-08-28T18:24:35.428Z,94.23
2023-08-28T18:26:48.713Z,94.00
2023-08-28T18:29:01.829Z,93.65
2023-08-28T18:31:14.941Z,93.52
2023-08-28T18:33:27.970Z,93.95
2023-08-28T18:35:40.745Z,94.18
2023-08-28T18:37:56.904Z,94.09
2023-08-28T18:40:13.449Z,93.60
2023-08-28T18:42:26.353Z,94.02
2023-08-28T18:44:39.181Z,94.07
2023-08-28T18:46:51.955Z,94.22
2023-08-28T18:49:05.368Z,93.82
2023-08-28T18:51:19.801Z,94.17
2023-08-28T18:53:33.013Z,93.98
2023-08-28T18:55:46.611Z,93.98
2023-08-28T18:58:00.006Z,94.07
2023-08-28T19:00:15.765Z,93.95
2023-08-28T19:02:28.720Z,93.88
2023-08-28T19:04:42.562Z,94.20
2023-08-28T19:06:55.450Z,94.19
2023-08-28T19:09:09.377Z,93.99
2023-08-28T19:11:22.435Z,94.20
2023-08-28T19:13:36.066Z,94.16
2023-08-28T19:15:50.190Z,93.67
2023-08-28T19:18:03.844Z,93.49
2023-08-28T19:20:18.106Z,93.55
2023-08-28T19:22:31.012Z,92.56
2023-08-28T19:24:44.107Z,92.65
2023-08-28T19:26:57.217Z,92.62
2023-08-28T19:29:10.946Z,92.36
2023-08-28T19:31:24.794Z,91.95
2023-08-28T19:33:37.984Z,91.35
2023-08-28T19:35:52.065Z,91.80
2023-08-28T19:38:06.274Z,91.97
2023-08-28T19:40:21.387Z,91.89
2023-08-28T19:42:34.431Z,91.49
2023-08-28T19:44:47.618Z,91.33
2023-08-28T19:47:00.545Z,91.20
2023-08-28T19:49:13.541Z,90.68
2023-08-28T19:51:29.442Z,89.56
2023-08-28T19:53:42.278Z,89.29
2023-08-28T19:55:55.264Z,89.84
2023-08-28T19:58:08.975Z,89.32
2023-08-28T20:00:22.679Z,88.35
2023-08-28T20:02:35.555Z,87.75
2023-08-28T20:04:49.431Z,87.35
2023-08-28T20:07:02.472Z,87.30
2023-08-28T20:09:16.629Z,87.70
2023-08-28T20:11:29.919Z,87.38
2023-08-28T20:13:42.851Z,87.49
2023-08-28T20:15:58.829Z,87.65
2023-08-28T20:18:12.445Z,87.61
2023-08-28T20:20:25.589Z,87.81
2023-08-28T20:22:40.341Z,87.49
2023-08-28T20:24:55.121Z,87.54
2023-08-28T20:27:10.146Z,87.29
2023-08-28T20:29:23.076Z,87.11
2023-08-28T20:31:36.012Z,86.82
2023-08-28T20:33:49.271Z,87.11
2023-08-28T20:36:02.135Z,87.03
2023-08-28T20:38:15.143Z,86.75
2023-08-28T20:40:29.089Z,85.77
2023-08-28T20:42:42.285Z,85.56
2023-08-28T20:44:55.471Z,85.18
2023-08-28T20:47:08.504Z,85.53
2023-08-28T20:49:21.221Z,85.87
2023-08-28T20:51:35.110Z,86.37
2023-08-28T20:53:48.142Z,86.52
2023-08-28T20:56:01.824Z,86.77
2023-08-28T20:58:14.677Z,86.94
2023-08-28T21:00:27.801Z,86.93
2023-08-28T21:02:41.047Z,85.84
2023-08-28T21:04:54.327Z,85.84
2023-08-28T21:07:07.470Z,84.93
2023-08-28T21:09:20.545Z,84.05
2023-08-28T21:11:33.944Z,83.57
2023-08-28T21:13:47.258Z,84.29
2023-08-28T21:16:03.255Z,84.74
2023-08-28T21:18:16.729Z,85.63
2023-08-28T21:20:29.890Z,86.38
2023-08-28T21:22:42.699Z,85.82
2023-08-28T21:24:55.591Z,85.95
2023-08-28T21:27:08.873Z,86.29
2023-08-28T21:29:21.714Z,85.45
2023-08-28T21:31:34.666Z,84.12
2023-08-28T21:33:48.778Z,83.09
2023-08-28T21:36:02.294Z,82.44
2023-08-28T21:38:15.056Z,81.17
2023-08-28T21:40:28.696Z,81.01
2023-08-28T21:42:41.811Z,80.86
2023-08-28T21:44:55.599Z,80.36
2023-08-28T21:47:08.616Z,80.01
2023-08-28T21:49:40.624Z,79.27
2023-08-28T21:52:12.678Z,77.23
2023-08-28T21:54:44.182Z,77.18
2023-08-28T21:57:16.165Z,76.70
2023-08-28T21:59:48.688Z,75.38
2023-08-28T22:02:17.664Z,74.80
2023-08-28T22:04:51.683Z,74.26
2023-08-28T22:07:23.446Z,74.81
2023-08-28T22:09:57.911Z,75.22
2023-08-28T22:12:15.686Z,75.82
2023-08-28T22:14:28.830Z,75.17
2023-08-28T22:16:41.974Z,74.38
2023-08-28T22:18:54.741Z,74.87
2023-08-28T22:21:07.756Z,75.53
2023-08-28T22:23:20.471Z,74.95
2023-08-28T22:25:33.257Z,74.71
2023-08-28T22:27:46.128Z,74.93
2023-08-28T22:29:59.369Z,74.73
2023-08-28T22:32:12.644Z,75.80
2023-08-28T22:34:26.079Z,76.28
2023-08-28T22:36:38.819Z,75.03
2023-08-28T22:38:52.022Z,74.17
2023-08-28T22:41:05.843Z,74.62
2023-08-28T22:43:18.759Z,75.32
2023-08-28T22:45:31.579Z,74.71
2023-08-28T22:47:44.927Z,75.05
2023-08-28T22:49:58.108Z,75.68
2023-08-28T22:52:11.461Z,75.52
2023-08-28T22:54:24.427Z,76.16
2023-08-28T22:56:37.769Z,76.90
2023-08-28T22:58:51.018Z,77.48
2023-08-28T23:01:05.054Z,78.14
2023-08-28T23:03:18.070Z,77.61
2023-08-28T23:05:31.058Z,76.86
2023-08-28T23:07:43.812Z,76.68
2023-08-28T23:09:57.034Z,77.28
2023-08-28T23:12:10.477Z,77.62
2023-08-28T23:14:23.683Z,78.42
2023-08-28T23:16:36.463Z,78.90
2023-08-28T23:18:50.295Z,78.47
2023-08-28T23:21:04.956Z,78.63
2023-08-28T23:23:17.998Z,78.53
2023-08-28T23:25:32.976Z,78.33
2023-08-28T23:27:45.765Z,78.10
2023-08-28T23:29:59.158Z,78.30
2023-08-28T23:32:13.952Z,78.87
2023-08-28T23:34:26.659Z,78.77
2023-08-28T23:36:39.752Z,78.69
2023-08-28T23:38:52.739Z,78.75
2023-08-28T23:41:05.632Z,79.23
2023-08-28T23:43:18.562Z,79.53
2023-08-28T23:45:31.437Z,79.73
2023-08-28T23:47:45.325Z,79.24
2023-08-28T23:49:58.545Z,79.02
2023-08-28T23:52:12.077Z,78.65
2023-08-28T23:54:25.138Z,78.27
2023-08-28T23:56:38.067Z,78.53
2023-08-28T23:58:50.844Z,78.39
